sensor_id;sensor_type;location;lat;lon;timestamp;P1;durP1;ratioP1;P2;durP2;ratioP2
2123;SDS011;1068;52.460;13.528;2024-02-21T00:01:26;12.13;;;4.33;;
2123;SDS011;1068;52.460;13.528;2024-02-21T00:03:53;12.00;;;5.40;;
2123;SDS011;1068;52.460;13.528;2024-02-21T00:06:20;17.70;;;5.43;;
2123;SDS011;1068;52.460;13.528;2024-02-21T00:08:47;12.70;;;5.40;;
2123;SDS011;1068;52.460;13.528;2024-02-21T00:11:15;18.17;;;5.60;;
2123;SDS011;1068;52.460;13.528;2024-02-21T00:13:42;11.63;;;4.23;;
2123;SDS011;1068;52.460;13.528;2024-02-21T00:16:09;10.17;;;4.17;;
2123;SDS011;1068;52.460;13.528;2024-02-21T00:18:36;12.83;;;5.17;;
2123;SDS011;1068;52.460;13.528;2024-02-21T00:21:03;15.07;;;5.10;;
2123;SDS011;1068;52.460;13.528;2024-02-21T00:23:30;12.80;;;4.17;;
2123;SDS011;1068;52.460;13.528;2024-02-21T00:25:57;14.57;;;5.53;;
2123;SDS011;1068;52.460;13.528;2024-02-21T00:28:25;8.40;;;4.03;;
2123;SDS011;1068;52.460;13.528;2024-02-21T00:30:52;11.13;;;4.77;;
2123;SDS011;1068;52.460;13.528;2024-02-21T00:33:19;11.17;;;4.00;;
2123;SDS011;1068;52.460;13.528;2024-02-21T00:35:46;11.73;;;4.50;;
2123;SDS011;1068;52.460;13.528;2024-02-21T00:38:13;13.47;;;5.10;;
2123;SDS011;1068;52.460;13.528;2024-02-21T00:40:40;13.43;;;4.60;;
2123;SDS011;1068;52.460;13.528;2024-02-21T00:43:07;10.10;;;4.17;;
2123;SDS011;1068;52.460;13.528;2024-02-21T00:45:35;8.87;;;4.30;;
2123;SDS011;1068;52.460;13.528;2024-02-21T00:48:04;8.90;;;4.40;;
2123;SDS011;1068;52.460;13.528;2024-02-21T00:50:31;13.00;;;5.60;;
2123;SDS011;1068;52.460;13.528;2024-02-21T00:52:58;12.40;;;3.57;;
2123;SDS011;1068;52.460;13.528;2024-02-21T00:55:25;15.30;;;4.47;;
2123;SDS011;1068;52.460;13.528;2024-02-21T00:57:52;11.30;;;4.53;;
2123;SDS011;1068;52.460;13.528;2024-02-21T01:00:19;12.30;;;4.50;;
2123;SDS011;1068;52.460;13.528;2024-02-21T01:02:47;8.10;;;3.77;;
2123;SDS011;1068;52.460;13.528;2024-02-21T01:05:14;18.40;;;5.30;;
2123;SDS011;1068;52.460;13.528;2024-02-21T01:07:41;10.20;;;5.00;;
2123;SDS011;1068;52.460;13.528;2024-02-21T01:10:08;12.73;;;4.83;;
2123;SDS011;1068;52.460;13.528;2024-02-21T01:12:35;15.93;;;5.20;;
2123;SDS011;1068;52.460;13.528;2024-02-21T01:15:02;11.03;;;4.40;;
2123;SDS011;1068;52.460;13.528;2024-02-21T01:17:29;14.90;;;5.10;;
2123;SDS011;1068;52.460;13.528;2024-02-21T01:19:58;14.33;;;4.93;;
2123;SDS011;1068;52.460;13.528;2024-02-21T01:22:25;13.73;;;4.33;;
2123;SDS011;1068;52.460;13.528;2024-02-21T01:24:51;13.23;;;4.93;;
2123;SDS011;1068;52.460;13.528;2024-02-21T01:27:18;12.57;;;4.30;;
2123;SDS011;1068;52.460;13.528;2024-02-21T01:29:45;9.13;;;5.07;;
2123;SDS011;1068;52.460;13.528;2024-02-21T01:32:14;11.00;;;4.73;;
2123;SDS011;1068;52.460;13.528;2024-02-21T01:34:41;7.60;;;4.23;;
2123;SDS011;1068;52.460;13.528;2024-02-21T01:37:09;12.60;;;5.03;;
2123;SDS011;1068;52.460;13.528;2024-02-21T01:39:36;12.90;;;4.90;;
2123;SDS011;1068;52.460;13.528;2024-02-21T01:42:03;14.97;;;4.90;;
2123;SDS011;1068;52.460;13.528;2024-02-21T01:44:31;11.33;;;4.40;;
2123;SDS011;1068;52.460;13.528;2024-02-21T01:46:58;9.20;;;4.23;;
2123;SDS011;1068;52.460;13.528;2024-02-21T01:49:25;19.10;;;4.90;;
2123;SDS011;1068;52.460;13.528;2024-02-21T01:51:52;12.27;;;4.97;;
2123;SDS011;1068;52.460;13.528;2024-02-21T01:54:21;12.23;;;4.37;;
2123;SDS011;1068;52.460;13.528;2024-02-21T01:56:48;9.07;;;4.23;;
2123;SDS011;1068;52.460;13.528;2024-02-21T01:59:15;13.50;;;4.93;;
2123;SDS011;1068;52.460;13.528;2024-02-21T02:01:43;9.53;;;4.20;;
2123;SDS011;1068;52.460;13.528;2024-02-21T02:04:10;9.97;;;4.40;;
2123;SDS011;1068;52.460;13.528;2024-02-21T02:06:37;6.13;;;4.33;;
2123;SDS011;1068;52.460;13.528;2024-02-21T02:09:04;9.87;;;4.43;;
2123;SDS011;1068;52.460;13.528;2024-02-21T02:11:33;22.07;;;4.97;;
2123;SDS011;1068;52.460;13.528;2024-02-21T02:14:01;12.23;;;5.67;;
2123;SDS011;1068;52.460;13.528;2024-02-21T02:16:28;12.27;;;4.47;;
2123;SDS011;1068;52.460;13.528;2024-02-21T02:18:54;9.73;;;4.27;;
2123;SDS011;1068;52.460;13.528;2024-02-21T02:21:23;15.40;;;6.13;;
2123;SDS011;1068;52.460;13.528;2024-02-21T02:23:51;10.90;;;4.60;;
2123;SDS011;1068;52.460;13.528;2024-02-21T02:26:18;16.10;;;4.37;;
2123;SDS011;1068;52.460;13.528;2024-02-21T02:28:45;8.43;;;4.13;;
2123;SDS011;1068;52.460;13.528;2024-02-21T02:31:12;11.93;;;5.30;;
2123;SDS011;1068;52.460;13.528;2024-02-21T02:33:39;7.67;;;4.07;;
2123;SDS011;1068;52.460;13.528;2024-02-21T02:36:06;11.50;;;4.13;;
2123;SDS011;1068;52.460;13.528;2024-02-21T02:38:33;9.00;;;4.57;;
2123;SDS011;1068;52.460;13.528;2024-02-21T02:41:01;16.73;;;4.37;;
2123;SDS011;1068;52.460;13.528;2024-02-21T02:43:28;12.20;;;4.90;;
2123;SDS011;1068;52.460;13.528;2024-02-21T02:45:55;13.27;;;4.90;;
2123;SDS011;1068;52.460;13.528;2024-02-21T02:48:22;7.33;;;4.30;;
2123;SDS011;1068;52.460;13.528;2024-02-21T02:50:49;17.10;;;4.53;;
2123;SDS011;1068;52.460;13.528;2024-02-21T02:53:15;11.40;;;3.83;;
2123;SDS011;1068;52.460;13.528;2024-02-21T02:55:43;9.60;;;3.80;;
2123;SDS011;1068;52.460;13.528;2024-02-21T02:58:11;13.53;;;4.83;;
2123;SDS011;1068;52.460;13.528;2024-02-21T03:00:38;14.63;;;5.50;;
2123;SDS011;1068;52.460;13.528;2024-02-21T03:03:05;11.90;;;5.23;;
2123;SDS011;1068;52.460;13.528;2024-02-21T03:05:33;14.70;;;4.37;;
2123;SDS011;1068;52.460;13.528;2024-02-21T03:08:01;17.60;;;5.70;;
2123;SDS011;1068;52.460;13.528;2024-02-21T03:10:31;14.10;;;4.70;;
2123;SDS011;1068;52.460;13.528;2024-02-21T03:12:58;11.33;;;5.23;;
2123;SDS011;1068;52.460;13.528;2024-02-21T03:15:26;8.57;;;4.23;;
2123;SDS011;1068;52.460;13.528;2024-02-21T03:17:53;13.13;;;4.57;;
2123;SDS011;1068;52.460;13.528;2024-02-21T03:20:20;17.63;;;6.00;;
2123;SDS011;1068;52.460;13.528;2024-02-21T03:22:47;11.47;;;4.60;;
2123;SDS011;1068;52.460;13.528;2024-02-21T03:25:14;9.10;;;5.53;;
2123;SDS011;1068;52.460;13.528;2024-02-21T03:27:41;12.07;;;4.70;;
2123;SDS011;1068;52.460;13.528;2024-02-21T03:30:08;14.03;;;5.07;;
2123;SDS011;1068;52.460;13.528;2024-02-21T03:32:37;9.23;;;4.50;;
2123;SDS011;1068;52.460;13.528;2024-02-21T03:35:05;12.70;;;4.30;;
2123;SDS011;1068;52.460;13.528;2024-02-21T03:37:32;16.10;;;4.27;;
2123;SDS011;1068;52.460;13.528;2024-02-21T03:39:59;14.20;;;4.97;;
2123;SDS011;1068;52.460;13.528;2024-02-21T03:42:26;10.13;;;4.70;;
2123;SDS011;1068;52.460;13.528;2024-02-21T03:44:54;11.57;;;4.00;;
2123;SDS011;1068;52.460;13.528;2024-02-21T03:47:21;14.10;;;5.10;;
2123;SDS011;1068;52.460;13.528;2024-02-21T03:49:50;16.43;;;5.30;;
2123;SDS011;1068;52.460;13.528;2024-02-21T03:52:17;7.80;;;4.00;;
2123;SDS011;1068;52.460;13.528;2024-02-21T03:54:44;9.77;;;4.50;;
2123;SDS011;1068;52.460;13.528;2024-02-21T03:57:11;8.03;;;4.30;;
2123;SDS011;1068;52.460;13.528;2024-02-21T03:59:37;8.53;;;4.83;;
2123;SDS011;1068;52.460;13.528;2024-02-21T04:02:05;9.90;;;4.50;;
2123;SDS011;1068;52.460;13.528;2024-02-21T04:04:33;13.43;;;5.07;;
2123;SDS011;1068;52.460;13.528;2024-02-21T04:07:03;9.37;;;4.87;;
2123;SDS011;1068;52.460;13.528;2024-02-21T04:09:31;10.83;;;4.60;;
2123;SDS011;1068;52.460;13.528;2024-02-21T04:11:58;10.77;;;4.90;;
2123;SDS011;1068;52.460;13.528;2024-02-21T04:14:25;9.53;;;4.30;;
2123;SDS011;1068;52.460;13.528;2024-02-21T04:16:52;11.10;;;4.20;;
2123;SDS011;1068;52.460;13.528;2024-02-21T04:19:19;8.37;;;4.90;;
2123;SDS011;1068;52.460;13.528;2024-02-21T04:21:45;10.80;;;5.60;;
2123;SDS011;1068;52.460;13.528;2024-02-21T04:24:14;8.90;;;4.63;;
2123;SDS011;1068;52.460;13.528;2024-02-21T04:26:40;11.77;;;5.13;;
2123;SDS011;1068;52.460;13.528;2024-02-21T04:29:08;18.90;;;5.87;;
2123;SDS011;1068;52.460;13.528;2024-02-21T04:31:35;16.73;;;6.43;;
2123;SDS011;1068;52.460;13.528;2024-02-21T04:34:02;9.67;;;4.60;;
2123;SDS011;1068;52.460;13.528;2024-02-21T04:36:29;14.17;;;5.07;;
2123;SDS011;1068;52.460;13.528;2024-02-21T04:38:56;7.30;;;4.37;;
2123;SDS011;1068;52.460;13.528;2024-02-21T04:41:24;10.33;;;5.00;;
2123;SDS011;1068;52.460;13.528;2024-02-21T04:43:51;10.67;;;5.43;;
2123;SDS011;1068;52.460;13.528;2024-02-21T04:46:18;11.00;;;4.83;;
2123;SDS011;1068;52.460;13.528;2024-02-21T04:48:45;12.23;;;5.10;;
2123;SDS011;1068;52.460;13.528;2024-02-21T04:51:12;11.80;;;4.83;;
2123;SDS011;1068;52.460;13.528;2024-02-21T04:53:39;14.90;;;6.47;;
2123;SDS011;1068;52.460;13.528;2024-02-21T04:56:06;8.77;;;5.10;;
2123;SDS011;1068;52.460;13.528;2024-02-21T04:58:37;11.47;;;5.30;;
2123;SDS011;1068;52.460;13.528;2024-02-21T05:01:04;8.20;;;4.73;;
2123;SDS011;1068;52.460;13.528;2024-02-21T05:03:31;10.70;;;5.30;;
2123;SDS011;1068;52.460;13.528;2024-02-21T05:05:58;6.90;;;4.97;;
2123;SDS011;1068;52.460;13.528;2024-02-21T05:08:25;16.90;;;5.10;;
2123;SDS011;1068;52.460;13.528;2024-02-21T05:10:52;13.43;;;5.20;;
2123;SDS011;1068;52.460;13.528;2024-02-21T05:13:19;15.10;;;5.40;;
2123;SDS011;1068;52.460;13.528;2024-02-21T05:15:48;10.63;;;6.00;;
2123;SDS011;1068;52.460;13.528;2024-02-21T05:18:15;10.53;;;5.47;;
2123;SDS011;1068;52.460;13.528;2024-02-21T05:20:42;13.93;;;5.20;;
2123;SDS011;1068;52.460;13.528;2024-02-21T05:23:09;15.10;;;5.47;;
2123;SDS011;1068;52.460;13.528;2024-02-21T05:25:36;10.47;;;5.80;;
2123;SDS011;1068;52.460;13.528;2024-02-21T05:28:03;10.13;;;5.60;;
2123;SDS011;1068;52.460;13.528;2024-02-21T05:30:31;10.87;;;6.13;;
2123;SDS011;1068;52.460;13.528;2024-02-21T05:33:03;13.27;;;5.90;;
2123;SDS011;1068;52.460;13.528;2024-02-21T05:35:30;11.20;;;5.70;;
2123;SDS011;1068;52.460;13.528;2024-02-21T05:37:57;11.13;;;5.10;;
2123;SDS011;1068;52.460;13.528;2024-02-21T05:40:24;13.07;;;5.90;;
2123;SDS011;1068;52.460;13.528;2024-02-21T05:42:51;9.07;;;4.97;;
2123;SDS011;1068;52.460;13.528;2024-02-21T05:45:18;13.77;;;5.90;;
2123;SDS011;1068;52.460;13.528;2024-02-21T05:47:45;9.50;;;5.67;;
2123;SDS011;1068;52.460;13.528;2024-02-21T05:50:13;9.57;;;5.30;;
2123;SDS011;1068;52.460;13.528;2024-02-21T05:52:40;12.03;;;5.63;;
2123;SDS011;1068;52.460;13.528;2024-02-21T05:55:07;7.27;;;6.23;;
2123;SDS011;1068;52.460;13.528;2024-02-21T05:57:34;10.57;;;5.50;;
2123;SDS011;1068;52.460;13.528;2024-02-21T06:00:03;14.43;;;7.00;;
2123;SDS011;1068;52.460;13.528;2024-02-21T06:02:30;12.53;;;7.00;;
2123;SDS011;1068;52.460;13.528;2024-02-21T06:04:57;11.60;;;5.67;;
2123;SDS011;1068;52.460;13.528;2024-02-21T06:07:25;12.73;;;4.47;;
2123;SDS011;1068;52.460;13.528;2024-02-21T06:09:52;12.60;;;6.60;;
2123;SDS011;1068;52.460;13.528;2024-02-21T06:12:19;21.13;;;5.67;;
2123;SDS011;1068;52.460;13.528;2024-02-21T06:14:46;14.37;;;5.90;;
2123;SDS011;1068;52.460;13.528;2024-02-21T06:17:13;9.57;;;5.53;;
2123;SDS011;1068;52.460;13.528;2024-02-21T06:19:40;10.93;;;5.30;;
2123;SDS011;1068;52.460;13.528;2024-02-21T06:22:07;11.57;;;5.40;;
2123;SDS011;1068;52.460;13.528;2024-02-21T06:24:35;13.20;;;5.33;;
2123;SDS011;1068;52.460;13.528;2024-02-21T06:27:02;15.47;;;7.43;;
2123;SDS011;1068;52.460;13.528;2024-02-21T06:29:30;15.50;;;6.33;;
2123;SDS011;1068;52.460;13.528;2024-02-21T06:31:57;12.90;;;6.43;;
2123;SDS011;1068;52.460;13.528;2024-02-21T06:34:24;14.00;;;5.33;;
2123;SDS011;1068;52.460;13.528;2024-02-21T06:36:51;14.50;;;5.60;;
2123;SDS011;1068;52.460;13.528;2024-02-21T06:39:18;13.70;;;6.17;;
2123;SDS011;1068;52.460;13.528;2024-02-21T06:41:47;11.50;;;5.90;;
2123;SDS011;1068;52.460;13.528;2024-02-21T06:44:15;12.30;;;6.20;;
2123;SDS011;1068;52.460;13.528;2024-02-21T06:46:42;10.23;;;6.27;;
2123;SDS011;1068;52.460;13.528;2024-02-21T06:49:09;11.67;;;6.33;;
2123;SDS011;1068;52.460;13.528;2024-02-21T06:51:40;19.50;;;6.60;;
2123;SDS011;1068;52.460;13.528;2024-02-21T06:54:07;9.10;;;5.30;;
2123;SDS011;1068;52.460;13.528;2024-02-21T06:56:34;10.77;;;6.60;;
2123;SDS011;1068;52.460;13.528;2024-02-21T06:59:02;12.27;;;6.00;;
2123;SDS011;1068;52.460;13.528;2024-02-21T07:01:30;12.90;;;6.60;;
2123;SDS011;1068;52.460;13.528;2024-02-21T07:03:57;14.87;;;5.97;;
2123;SDS011;1068;52.460;13.528;2024-02-21T07:06:23;22.30;;;7.23;;
2123;SDS011;1068;52.460;13.528;2024-02-21T07:08:50;9.73;;;6.10;;
2123;SDS011;1068;52.460;13.528;2024-02-21T07:11:17;11.60;;;5.43;;
2123;SDS011;1068;52.460;13.528;2024-02-21T07:13:44;12.53;;;5.47;;
2123;SDS011;1068;52.460;13.528;2024-02-21T07:16:12;9.83;;;5.57;;
2123;SDS011;1068;52.460;13.528;2024-02-21T07:18:39;11.47;;;6.20;;
2123;SDS011;1068;52.460;13.528;2024-02-21T07:21:06;9.07;;;6.17;;
2123;SDS011;1068;52.460;13.528;2024-02-21T07:23:33;14.00;;;5.83;;
2123;SDS011;1068;52.460;13.528;2024-02-21T07:26:00;10.33;;;5.57;;
2123;SDS011;1068;52.460;13.528;2024-02-21T07:28:27;8.00;;;5.87;;
2123;SDS011;1068;52.460;13.528;2024-02-21T07:30:54;10.83;;;6.00;;
2123;SDS011;1068;52.460;13.528;2024-02-21T07:33:22;14.17;;;5.50;;
2123;SDS011;1068;52.460;13.528;2024-02-21T07:35:49;11.90;;;6.57;;
2123;SDS011;1068;52.460;13.528;2024-02-21T07:38:15;9.00;;;5.47;;
2123;SDS011;1068;52.460;13.528;2024-02-21T07:40:44;14.87;;;6.70;;
2123;SDS011;1068;52.460;13.528;2024-02-21T07:43:11;13.93;;;5.77;;
2123;SDS011;1068;52.460;13.528;2024-02-21T07:45:38;18.57;;;5.23;;
2123;SDS011;1068;52.460;13.528;2024-02-21T07:48:05;10.00;;;5.60;;
2123;SDS011;1068;52.460;13.528;2024-02-21T07:50:33;14.30;;;5.60;;
2123;SDS011;1068;52.460;13.528;2024-02-21T07:53:00;14.03;;;6.57;;
2123;SDS011;1068;52.460;13.528;2024-02-21T07:55:27;10.20;;;6.00;;
2123;SDS011;1068;52.460;13.528;2024-02-21T07:57:54;12.83;;;5.50;;
2123;SDS011;1068;52.460;13.528;2024-02-21T08:00:21;10.50;;;5.67;;
2123;SDS011;1068;52.460;13.528;2024-02-21T08:02:48;9.13;;;4.67;;
2123;SDS011;1068;52.460;13.528;2024-02-21T08:05:15;10.17;;;5.77;;
2123;SDS011;1068;52.460;13.528;2024-02-21T08:07:43;11.13;;;5.87;;
2123;SDS011;1068;52.460;13.528;2024-02-21T08:10:10;12.57;;;5.30;;
2123;SDS011;1068;52.460;13.528;2024-02-21T08:12:38;15.40;;;6.07;;
2123;SDS011;1068;52.460;13.528;2024-02-21T08:15:05;9.33;;;5.60;;
2123;SDS011;1068;52.460;13.528;2024-02-21T08:17:35;12.30;;;5.70;;
2123;SDS011;1068;52.460;13.528;2024-02-21T08:20:03;11.20;;;6.37;;
2123;SDS011;1068;52.460;13.528;2024-02-21T08:22:30;7.27;;;5.07;;
2123;SDS011;1068;52.460;13.528;2024-02-21T08:24:58;9.70;;;5.87;;
2123;SDS011;1068;52.460;13.528;2024-02-21T08:27:25;8.60;;;5.23;;
2123;SDS011;1068;52.460;13.528;2024-02-21T08:29:52;12.53;;;6.20;;
2123;SDS011;1068;52.460;13.528;2024-02-21T08:32:19;13.37;;;6.80;;
2123;SDS011;1068;52.460;13.528;2024-02-21T08:34:46;11.33;;;6.33;;
2123;SDS011;1068;52.460;13.528;2024-02-21T08:37:13;9.10;;;6.20;;
2123;SDS011;1068;52.460;13.528;2024-02-21T08:39:40;12.57;;;6.80;;
2123;SDS011;1068;52.460;13.528;2024-02-21T08:42:09;10.83;;;5.93;;
2123;SDS011;1068;52.460;13.528;2024-02-21T08:44:35;11.50;;;6.10;;
2123;SDS011;1068;52.460;13.528;2024-02-21T08:47:06;7.53;;;6.50;;
2123;SDS011;1068;52.460;13.528;2024-02-21T08:49:34;10.60;;;7.30;;
2123;SDS011;1068;52.460;13.528;2024-02-21T08:52:02;11.57;;;5.67;;
2123;SDS011;1068;52.460;13.528;2024-02-21T08:54:30;9.30;;;5.80;;
2123;SDS011;1068;52.460;13.528;2024-02-21T08:56:57;8.80;;;6.27;;
2123;SDS011;1068;52.460;13.528;2024-02-21T08:59:25;8.23;;;5.57;;
2123;SDS011;1068;52.460;13.528;2024-02-21T09:01:52;8.30;;;5.60;;
2123;SDS011;1068;52.460;13.528;2024-02-21T09:04:19;10.87;;;6.70;;
2123;SDS011;1068;52.460;13.528;2024-02-21T09:06:46;16.53;;;6.50;;
2123;SDS011;1068;52.460;13.528;2024-02-21T09:09:13;10.87;;;5.90;;
2123;SDS011;1068;52.460;13.528;2024-02-21T09:11:40;14.97;;;6.00;;
2123;SDS011;1068;52.460;13.528;2024-02-21T09:14:07;14.53;;;7.43;;
2123;SDS011;1068;52.460;13.528;2024-02-21T09:16:35;11.00;;;5.60;;
2123;SDS011;1068;52.460;13.528;2024-02-21T09:19:02;15.00;;;6.50;;
2123;SDS011;1068;52.460;13.528;2024-02-21T09:21:29;11.07;;;7.17;;
2123;SDS011;1068;52.460;13.528;2024-02-21T09:23:56;11.40;;;5.83;;
2123;SDS011;1068;52.460;13.528;2024-02-21T09:26:23;10.77;;;5.90;;
2123;SDS011;1068;52.460;13.528;2024-02-21T09:28:50;12.33;;;6.20;;
2123;SDS011;1068;52.460;13.528;2024-02-21T09:31:16;14.93;;;5.63;;
2123;SDS011;1068;52.460;13.528;2024-02-21T09:33:45;9.97;;;6.13;;
2123;SDS011;1068;52.460;13.528;2024-02-21T09:36:12;9.20;;;5.77;;
2123;SDS011;1068;52.460;13.528;2024-02-21T09:38:39;10.80;;;5.90;;
2123;SDS011;1068;52.460;13.528;2024-02-21T09:41:08;12.67;;;6.43;;
2123;SDS011;1068;52.460;13.528;2024-02-21T09:43:38;13.40;;;6.23;;
2123;SDS011;1068;52.460;13.528;2024-02-21T09:46:06;11.23;;;8.30;;
2123;SDS011;1068;52.460;13.528;2024-02-21T09:48:39;8.53;;;5.53;;
2123;SDS011;1068;52.460;13.528;2024-02-21T09:51:11;13.57;;;6.67;;
2123;SDS011;1068;52.460;13.528;2024-02-21T09:53:38;9.43;;;6.20;;
2123;SDS011;1068;52.460;13.528;2024-02-21T09:56:07;10.30;;;5.67;;
2123;SDS011;1068;52.460;13.528;2024-02-21T09:58:34;9.27;;;5.80;;
2123;SDS011;1068;52.460;13.528;2024-02-21T10:01:01;11.33;;;5.87;;
2123;SDS011;1068;52.460;13.528;2024-02-21T10:03:31;13.60;;;6.33;;
2123;SDS011;1068;52.460;13.528;2024-02-21T10:05:59;15.13;;;7.10;;
2123;SDS011;1068;52.460;13.528;2024-02-21T10:08:27;9.80;;;6.47;;
2123;SDS011;1068;52.460;13.528;2024-02-21T10:10:54;9.10;;;5.60;;
2123;SDS011;1068;52.460;13.528;2024-02-21T10:13:25;7.13;;;5.00;;
2123;SDS011;1068;52.460;13.528;2024-02-21T10:16:05;15.60;;;6.40;;
2123;SDS011;1068;52.460;13.528;2024-02-21T10:18:32;15.03;;;6.07;;
2123;SDS011;1068;52.460;13.528;2024-02-21T10:21:00;18.13;;;6.40;;
2123;SDS011;1068;52.460;13.528;2024-02-21T10:23:28;10.10;;;6.30;;
2123;SDS011;1068;52.460;13.528;2024-02-21T10:26:04;14.47;;;6.73;;
2123;SDS011;1068;52.460;13.528;2024-02-21T10:28:31;14.40;;;6.87;;
2123;SDS011;1068;52.460;13.528;2024-02-21T10:30:58;10.97;;;6.50;;
2123;SDS011;1068;52.460;13.528;2024-02-21T10:33:25;9.43;;;6.33;;
2123;SDS011;1068;52.460;13.528;2024-02-21T10:35:53;12.00;;;6.53;;
2123;SDS011;1068;52.460;13.528;2024-02-21T10:38:20;9.17;;;6.20;;
2123;SDS011;1068;52.460;13.528;2024-02-21T10:40:48;5.90;;;5.20;;
2123;SDS011;1068;52.460;13.528;2024-02-21T10:43:17;9.60;;;7.30;;
2123;SDS011;1068;52.460;13.528;2024-02-21T10:45:44;12.90;;;6.67;;
2123;SDS011;1068;52.460;13.528;2024-02-21T10:48:13;10.17;;;5.80;;
2123;SDS011;1068;52.460;13.528;2024-02-21T10:50:45;9.13;;;5.87;;
2123;SDS011;1068;52.460;13.528;2024-02-21T10:53:17;9.00;;;5.73;;
2123;SDS011;1068;52.460;13.528;2024-02-21T10:56:06;9.47;;;5.87;;
2123;SDS011;1068;52.460;13.528;2024-02-21T10:58:33;12.70;;;6.70;;
2123;SDS011;1068;52.460;13.528;2024-02-21T11:01:01;10.90;;;5.30;;
2123;SDS011;1068;52.460;13.528;2024-02-21T11:03:29;13.73;;;6.27;;
2123;SDS011;1068;52.460;13.528;2024-02-21T11:05:56;9.33;;;6.23;;
2123;SDS011;1068;52.460;13.528;2024-02-21T11:08:24;11.33;;;5.80;;
2123;SDS011;1068;52.460;13.528;2024-02-21T11:10:56;12.20;;;6.10;;
2123;SDS011;1068;52.460;13.528;2024-02-21T11:13:29;10.17;;;6.27;;
2123;SDS011;1068;52.460;13.528;2024-02-21T11:16:05;7.97;;;6.40;;
2123;SDS011;1068;52.460;13.528;2024-02-21T11:18:32;6.17;;;5.53;;
2123;SDS011;1068;52.460;13.528;2024-02-21T11:20:59;7.70;;;5.73;;
2123;SDS011;1068;52.460;13.528;2024-02-21T11:23:26;8.20;;;6.00;;
2123;SDS011;1068;52.460;13.528;2024-02-21T11:25:56;11.73;;;6.10;;
2123;SDS011;1068;52.460;13.528;2024-02-21T11:28:30;7.87;;;6.10;;
2123;SDS011;1068;52.460;13.528;2024-02-21T11:31:04;9.60;;;5.27;;
2123;SDS011;1068;52.460;13.528;2024-02-21T11:33:33;6.50;;;5.63;;
2123;SDS011;1068;52.460;13.528;2024-02-21T11:36:00;5.50;;;4.63;;
2123;SDS011;1068;52.460;13.528;2024-02-21T11:38:28;7.13;;;5.17;;
2123;SDS011;1068;52.460;13.528;2024-02-21T11:40:57;8.30;;;4.63;;
2123;SDS011;1068;52.460;13.528;2024-02-21T11:43:24;7.70;;;5.50;;
2123;SDS011;1068;52.460;13.528;2024-02-21T11:45:52;8.67;;;5.13;;
2123;SDS011;1068;52.460;13.528;2024-02-21T11:48:24;7.83;;;3.90;;
2123;SDS011;1068;52.460;13.528;2024-02-21T11:50:52;6.40;;;4.50;;
2123;SDS011;1068;52.460;13.528;2024-02-21T11:53:20;9.43;;;4.87;;
2123;SDS011;1068;52.460;13.528;2024-02-21T11:55:47;11.47;;;5.50;;
2123;SDS011;1068;52.460;13.528;2024-02-21T11:58:15;6.17;;;4.03;;
2123;SDS011;1068;52.460;13.528;2024-02-21T12:00:42;8.30;;;5.90;;
2123;SDS011;1068;52.460;13.528;2024-02-21T12:03:09;6.60;;;4.93;;
2123;SDS011;1068;52.460;13.528;2024-02-21T12:05:36;5.70;;;4.67;;
2123;SDS011;1068;52.460;13.528;2024-02-21T12:08:03;5.10;;;4.43;;
2123;SDS011;1068;52.460;13.528;2024-02-21T12:10:31;6.93;;;5.03;;
2123;SDS011;1068;52.460;13.528;2024-02-21T12:13:05;8.43;;;4.90;;
2123;SDS011;1068;52.460;13.528;2024-02-21T12:15:33;5.10;;;3.93;;
2123;SDS011;1068;52.460;13.528;2024-02-21T12:18:00;5.07;;;3.83;;
2123;SDS011;1068;52.460;13.528;2024-02-21T12:20:27;7.90;;;3.67;;
2123;SDS011;1068;52.460;13.528;2024-02-21T12:22:54;4.90;;;3.23;;
2123;SDS011;1068;52.460;13.528;2024-02-21T12:25:22;6.13;;;4.07;;
2123;SDS011;1068;52.460;13.528;2024-02-21T12:27:51;5.57;;;3.47;;
2123;SDS011;1068;52.460;13.528;2024-02-21T12:30:19;4.97;;;4.03;;
2123;SDS011;1068;52.460;13.528;2024-02-21T12:32:47;4.60;;;3.63;;
2123;SDS011;1068;52.460;13.528;2024-02-21T12:35:14;8.77;;;3.80;;
2123;SDS011;1068;52.460;13.528;2024-02-21T12:37:42;6.50;;;4.17;;
2123;SDS011;1068;52.460;13.528;2024-02-21T12:40:10;13.97;;;8.70;;
2123;SDS011;1068;52.460;13.528;2024-02-21T12:42:38;3.67;;;3.30;;
2123;SDS011;1068;52.460;13.528;2024-02-21T12:45:05;6.57;;;3.93;;
2123;SDS011;1068;52.460;13.528;2024-02-21T12:47:32;12.27;;;4.30;;
2123;SDS011;1068;52.460;13.528;2024-02-21T12:50:01;5.03;;;4.40;;
2123;SDS011;1068;52.460;13.528;2024-02-21T12:52:29;4.43;;;4.00;;
2123;SDS011;1068;52.460;13.528;2024-02-21T12:54:56;4.40;;;3.60;;
2123;SDS011;1068;52.460;13.528;2024-02-21T12:57:23;14.03;;;5.20;;
2123;SDS011;1068;52.460;13.528;2024-02-21T12:59:50;7.30;;;4.10;;
2123;SDS011;1068;52.460;13.528;2024-02-21T13:02:17;6.70;;;4.20;;
2123;SDS011;1068;52.460;13.528;2024-02-21T13:04:45;4.63;;;4.00;;
2123;SDS011;1068;52.460;13.528;2024-02-21T13:07:14;6.93;;;4.13;;
2123;SDS011;1068;52.460;13.528;2024-02-21T13:09:41;4.63;;;3.50;;
2123;SDS011;1068;52.460;13.528;2024-02-21T13:12:08;4.40;;;4.00;;
2123;SDS011;1068;52.460;13.528;2024-02-21T13:14:34;6.33;;;4.43;;
2123;SDS011;1068;52.460;13.528;2024-02-21T13:17:03;5.03;;;4.20;;
2123;SDS011;1068;52.460;13.528;2024-02-21T13:19:30;6.80;;;5.13;;
2123;SDS011;1068;52.460;13.528;2024-02-21T13:21:57;8.50;;;4.40;;
2123;SDS011;1068;52.460;13.528;2024-02-21T13:24:25;6.67;;;4.37;;
2123;SDS011;1068;52.460;13.528;2024-02-21T13:26:52;10.47;;;4.20;;
2123;SDS011;1068;52.460;13.528;2024-02-21T13:29:19;5.13;;;3.73;;
2123;SDS011;1068;52.460;13.528;2024-02-21T13:31:46;7.07;;;4.87;;
2123;SDS011;1068;52.460;13.528;2024-02-21T13:34:14;8.80;;;3.67;;
2123;SDS011;1068;52.460;13.528;2024-02-21T13:36:42;7.87;;;4.30;;
2123;SDS011;1068;52.460;13.528;2024-02-21T13:39:09;6.77;;;4.20;;
2123;SDS011;1068;52.460;13.528;2024-02-21T13:41:39;8.30;;;3.93;;
2123;SDS011;1068;52.460;13.528;2024-02-21T13:44:07;6.37;;;3.67;;
2123;SDS011;1068;52.460;13.528;2024-02-21T13:46:35;4.83;;;3.57;;
2123;SDS011;1068;52.460;13.528;2024-02-21T13:49:02;7.30;;;3.87;;
2123;SDS011;1068;52.460;13.528;2024-02-21T13:51:31;5.30;;;3.70;;
2123;SDS011;1068;52.460;13.528;2024-02-21T13:53:57;6.93;;;4.27;;
2123;SDS011;1068;52.460;13.528;2024-02-21T13:56:25;5.40;;;3.93;;
2123;SDS011;1068;52.460;13.528;2024-02-21T13:58:53;7.20;;;4.27;;
2123;SDS011;1068;52.460;13.528;2024-02-21T14:01:20;5.20;;;3.63;;
2123;SDS011;1068;52.460;13.528;2024-02-21T14:03:47;3.97;;;3.57;;
2123;SDS011;1068;52.460;13.528;2024-02-21T14:06:14;4.97;;;3.40;;
2123;SDS011;1068;52.460;13.528;2024-02-21T14:08:42;6.40;;;3.17;;
2123;SDS011;1068;52.460;13.528;2024-02-21T14:11:09;6.60;;;3.50;;
2123;SDS011;1068;52.460;13.528;2024-02-21T14:13:36;8.60;;;3.30;;
2123;SDS011;1068;52.460;13.528;2024-02-21T14:16:08;3.90;;;3.40;;
2123;SDS011;1068;52.460;13.528;2024-02-21T14:18:36;6.80;;;3.30;;
2123;SDS011;1068;52.460;13.528;2024-02-21T14:21:04;6.37;;;3.00;;
2123;SDS011;1068;52.460;13.528;2024-02-21T14:23:30;4.27;;;3.10;;
2123;SDS011;1068;52.460;13.528;2024-02-21T14:25:58;5.23;;;3.10;;
2123;SDS011;1068;52.460;13.528;2024-02-21T14:28:25;5.97;;;3.00;;
2123;SDS011;1068;52.460;13.528;2024-02-21T14:30:52;3.90;;;3.00;;
2123;SDS011;1068;52.460;13.528;2024-02-21T14:33:23;3.10;;;2.70;;
2123;SDS011;1068;52.460;13.528;2024-02-21T14:35:50;5.23;;;3.03;;
2123;SDS011;1068;52.460;13.528;2024-02-21T14:38:17;5.37;;;2.90;;
2123;SDS011;1068;52.460;13.528;2024-02-21T14:40:44;3.10;;;2.80;;
2123;SDS011;1068;52.460;13.528;2024-02-21T14:43:11;2.97;;;2.70;;
2123;SDS011;1068;52.460;13.528;2024-02-21T14:45:38;3.03;;;2.60;;
2123;SDS011;1068;52.460;13.528;2024-02-21T14:48:05;6.93;;;2.60;;
2123;SDS011;1068;52.460;13.528;2024-02-21T14:50:34;6.47;;;2.80;;
2123;SDS011;1068;52.460;13.528;2024-02-21T14:53:01;3.83;;;2.60;;
2123;SDS011;1068;52.460;13.528;2024-02-21T14:55:27;5.60;;;2.83;;